Time;durP1;ratioP1;P1;durP2;ratioP2;P2;SDS_P1;SDS_P2;PMS_P1;PMS_P2;Temp;Humidity;BMP_temperature;BMP_pressure;BME280_temperature;BME280_humidity;BME280_pressure;Samples;Min_cycle;Max_cycle;Signal;HPM_P1;HPM_P2
2022/06/10 00:02:06;;;;;;;4.53;3.08;;;;;;;18.40;87.12;94022.41;5094209;28;20162;-81
2022/06/10 00:04:33;;;;;;;9.50;3.70;;;;;;;18.21;87.91;93994.06;5094080;28;20556;-81
2022/06/10 00:06:58;;;;;;;12.60;3.70;;;;;;;18.64;88.28;94075.81;5093932;28;20174;-81
2022/06/10 00:09:24;;;;;;;13.02;5.78;;;;;;;18.33;88.72;94029.94;5093984;28;20166;-81
2022/06/10 00:11:49;;;;;;;10.85;6.65;;;;;;;18.69;87.74;94074.97;5093946;28;20170;-81
2022/06/10 00:14:15;;;;;;;15.27;9.10;;;;;;;18.44;87.73;94030.63;5094002;28;20613;-81
2022/06/10 00:16:40;;;;;;;11.30;7.55;;;;;;;18.30;87.90;94003.84;5093986;28;20238;-81
2022/06/10 00:19:06;;;;;;;3.88;2.80;;;;;;;18.34;87.46;93998.72;5094281;28;20186;-81
2022/06/10 00:21:31;;;;;;;15.57;7.28;;;;;;;18.59;85.69;94037.75;5093999;28;20205;-81
2022/06/10 00:23:57;;;;;;;7.75;5.57;;;;;;;18.71;85.54;94054.94;5093937;28;20162;-81
2022/06/10 00:26:22;;;;;;;10.55;7.30;;;;;;;18.74;85.82;94059.72;5093856;28;20945;-81
2022/06/10 00:28:48;;;;;;;6.95;5.35;;;;;;;18.75;86.09;94039.19;5093975;28;20166;-81
2022/06/10 00:31:15;;;;;;;7.10;4.80;;;;;;;18.93;86.02;94056.34;5093810;28;20247;-81
2022/06/10 00:33:41;;;;;;;5.85;3.92;;;;;;;18.91;86.46;94051.31;5092215;28;20169;-81
2022/06/10 00:36:08;;;;;;;4.88;3.20;;;;;;;18.93;86.25;94056.34;5093468;28;20531;-81
2022/06/10 00:38:34;;;;;;;5.45;3.97;;;;;;;18.66;86.39;94017.69;5091991;28;20194;-80
2022/06/10 00:41:00;;;;;;;5.40;3.20;;;;;;;18.90;85.26;94049.69;5093733;28;20170;-81
2022/06/10 00:43:30;;;;;;;7.20;3.47;;;;;;;18.95;84.90;94049.63;5093379;28;20162;-81
2022/06/10 00:46:17;;;;;;;4.00;3.53;;;;;;;18.73;85.23;94028.00;5093524;28;20651;-81
2022/06/10 00:49:01;;;;;;;6.13;3.30;;;;;;;18.88;84.90;94046.53;5093506;28;20192;-81
2022/06/10 00:51:47;;;;;;;4.43;3.30;;;;;;;18.83;85.97;94049.25;5093655;28;20162;-80
2022/06/10 00:54:41;;;;;;;4.63;3.40;;;;;;;18.82;85.98;94045.78;5093509;28;20238;-81
2022/06/10 00:57:13;;;;;;;3.83;3.13;;;;;;;18.71;85.55;94030.16;5092902;28;20216;-81
2022/06/10 01:00:03;;;;;;;4.55;3.20;;;;;;;18.55;85.57;93999.34;5093929;28;20186;-81
2022/06/10 01:02:31;;;;;;;5.60;3.55;;;;;;;18.81;85.53;94043.38;5092150;28;20181;-81
2022/06/10 01:04:59;;;;;;;6.88;3.67;;;;;;;18.69;85.40;94021.63;5093119;28;20563;-80
2022/06/10 01:07:29;;;;;;;4.20;3.25;;;;;;;18.59;85.28;94019.09;5093506;28;20165;-81
2022/06/10 01:09:55;;;;;;;4.60;3.42;;;;;;;18.51;85.62;93999.09;5092833;28;20248;-81
2022/06/10 01:12:36;;;;;;;7.93;3.95;;;;;;;18.76;86.14;94040.78;5093086;28;20245;-81
2022/06/10 01:15:07;;;;;;;5.95;3.85;;;;;;;18.79;86.03;94045.53;5092817;28;20185;-81
2022/06/10 01:17:37;;;;;;;4.95;3.58;;;;;;;18.84;85.90;94048.97;5092686;28;20181;-81
2022/06/10 01:20:23;;;;;;;4.72;3.35;;;;;;;18.54;86.22;94003.09;5092652;28;20718;-81
2022/06/10 01:23:07;;;;;;;6.38;4.13;;;;;;;18.80;86.25;94045.25;5092911;28;20582;-81
2022/06/10 01:25:51;;;;;;;4.80;3.83;;;;;;;18.85;86.43;94049.78;5092930;28;20181;-81
2022/06/10 01:28:38;;;;;;;4.45;3.67;;;;;;;18.80;86.39;94044.47;5092856;28;20681;-80
2022/06/10 01:31:07;;;;;;;5.45;3.88;;;;;;;18.81;86.75;94049.53;5092454;28;20169;-81
2022/06/10 01:33:37;;;;;;;6.70;3.85;;;;;;;18.63;86.60;94012.09;5091233;28;20173;-80
2022/06/10 01:36:31;;;;;;;5.65;3.90;;;;;;;18.70;86.98;94036.56;5092624;28;20162;-81
2022/06/10 01:39:07;;;;;;;5.40;4.47;;;;;;;18.81;86.95;94046.06;5092985;28;20565;-81
2022/06/10 01:41:51;;;;;;;6.57;4.53;;;;;;;18.76;86.53;94054.13;5092418;28;20162;-81
2022/06/10 01:44:25;;;;;;;6.97;5.13;;;;;;;18.42;86.67;94009.59;5092820;28;20169;-81
2022/06/10 01:47:13;;;;;;;9.43;5.45;;;;;;;18.47;87.88;94054.06;5092503;28;20160;-81
2022/06/10 01:50:09;;;;;;;7.82;4.70;;;;;;;18.48;88.08;94056.47;5092648;28;20236;-81
2022/06/10 01:52:49;;;;;;;8.63;5.00;;;;;;;18.47;88.04;94054.06;5092322;28;20181;-80
2022/06/10 01:55:23;;;;;;;8.15;5.45;;;;;;;18.43;88.01;94042.34;5091242;28;20165;-80
2022/06/10 01:58:02;;;;;;;6.55;4.45;;;;;;;18.47;88.79;94056.72;5092345;28;20172;-80
2022/06/10 02:00:31;;;;;;;7.28;5.32;;;;;;;18.43;88.70;94059.16;5091531;28;20601;-80
2022/06/10 02:03:05;;;;;;;5.10;4.60;;;;;;;18.38;88.92;94053.88;5092064;28;20240;-80
2022/06/10 02:05:36;;;;;;;6.80;5.65;;;;;;;18.39;89.44;94060.78;5091596;28;20176;-80
2022/06/10 02:08:11;;;;;;;7.15;4.47;;;;;;;18.13;88.05;94010.63;5092724;28;20307;-80
2022/06/10 02:10:48;;;;;;;5.82;4.03;;;;;;;18.40;88.29;94054.41;5092594;28;20583;-80
2022/06/10 02:13:20;;;;;;;6.90;4.53;;;;;;;17.96;88.38;93982.53;5092031;28;20154;-81
2022/06/10 02:15:56;;;;;;;8.48;4.97;;;;;;;18.16;88.39;94010.09;5092349;28;20219;-81
2022/06/10 02:18:41;;;;;;;8.18;4.07;;;;;;;18.40;88.50;94042.94;5092406;28;20274;-81
2022/06/10 02:21:21;;;;;;;5.72;4.47;;;;;;;18.45;89.11;94042.88;5092090;28;20161;-81
2022/06/10 02:23:53;;;;;;;6.18;5.15;;;;;;;18.47;89.28;94046.88;5092002;28;20154;-81
2022/06/10 02:26:20;;;;;;;8.00;5.70;;;;;;;18.48;89.56;94043.13;5092779;28;20635;-80
2022/06/10 02:28:51;;;;;;;8.35;5.15;;;;;;;18.39;89.76;94017.34;5090361;28;20177;-80
2022/06/10 02:31:32;;;;;;;7.65;6.25;;;;;;;18.53;90.06;94044.16;5089942;28;20162;-80
2022/06/10 02:33:59;;;;;;;6.53;4.82;;;;;;;18.40;90.52;94025.06;5089090;28;20180;-80
2022/06/10 02:36:41;;;;;;;8.27;5.40;;;;;;;18.57;90.81;94045.22;5090340;28;20182;-80
2022/06/10 02:39:35;;;;;;;5.90;4.72;;;;;;;18.74;90.87;94070.41;5089444;28;20192;-80
2022/06/10 02:42:18;;;;;;;12.07;8.38;;;;;;;18.47;91.11;94030.06;5087558;28;20190;-80
2022/06/10 02:44:55;;;;;;;12.88;8.32;;;;;;;18.77;90.90;94072.47;5089660;28;20170;-80
2022/06/10 02:47:26;;;;;;;9.70;6.38;;;;;;;18.76;91.04;94075.47;5091546;28;20170;-80
2022/06/10 02:49:52;;;;;;;20.42;11.15;;;;;;;18.73;91.68;94074.13;5089872;28;20162;-80
2022/06/10 02:52:20;;;;;;;18.85;11.07;;;;;;;18.76;91.97;94078.13;5091368;28;21741;-81
2022/06/10 02:54:46;;;;;;;18.02;10.50;;;;;;;18.76;91.95;94075.47;5091203;28;20640;-80
2022/06/10 02:57:27;;;;;;;11.38;7.28;;;;;;;18.27;92.92;94031.03;5091365;28;20177;-80
2022/06/10 03:03:00;;;;;;;12.95;8.40;;;;;;;18.59;93.44;94078.53;5091402;28;20239;-80
2022/06/10 03:05:43;;;;;;;10.95;7.43;;;;;;;18.60;93.61;94084.63;5089353;28;20170;-80
2022/06/10 03:08:30;;;;;;;10.25;7.20;;;;;;;18.66;93.35;94078.19;5087630;28;20177;-80
2022/06/10 03:11:01;;;;;;;10.32;6.30;;;;;;;18.66;93.55;94080.88;5091239;28;20181;-80
2022/06/10 03:14:06;;;;;;;10.95;6.90;;;;;;;18.71;93.89;94088.81;5091840;28;20170;-80
2022/06/10 03:16:37;;;;;;;8.82;6.70;;;;;;;18.71;93.56;94092.28;5032452;28;20191;-80
2022/06/10 03:19:14;;;;;;;10.45;6.50;;;;;;;18.69;93.68;94089.09;5085985;28;20288;-80
2022/06/10 03:21:59;;;;;;;10.68;7.28;;;;;;;18.72;93.26;94088.53;5094690;28;20180;-80
2022/06/10 03:24:29;;;;;;;14.75;8.77;;;;;;;18.37;93.27;94035.50;5089087;28;20588;-80
2022/06/10 03:27:13;;;;;;;17.95;12.18;;;;;;;18.64;92.18;94072.34;5094328;28;20749;-80
2022/06/10 03:30:05;;;;;;;26.67;15.63;;;;;;;18.75;92.18;94085.31;5091972;28;20207;-80
2022/06/10 03:32:41;;;;;;;25.80;14.63;;;;;;;18.61;91.91;94068.38;5092446;28;20656;-80
2022/06/10 03:35:19;;;;;;;18.77;10.65;;;;;;;18.48;92.19;94037.81;5094588;28;20716;-80
2022/06/10 03:37:46;;;;;;;13.07;8.18;;;;;;;18.74;92.31;94085.59;5094101;28;20181;-80
2022/06/10 03:40:21;;;;;;;13.13;7.32;;;;;;;18.73;92.63;94092.00;5094650;28;20189;-81
2022/06/10 03:42:51;;;;;;;18.88;10.05;;;;;;;18.43;92.60;94055.69;5094268;28;20161;-81
2022/06/10 03:45:20;;;;;;;17.05;11.25;;;;;;;18.46;92.73;94055.94;5094350;28;20245;-81
2022/06/10 03:47:46;;;;;;;18.58;12.07;;;;;;;18.77;92.54;94095.69;5090260;28;20594;-80
2022/06/10 03:50:15;;;;;;;23.77;15.68;;;;;;;18.76;92.60;94099.44;5093025;28;20178;-80
2022/06/10 03:52:44;;;;;;;12.25;8.07;;;;;;;18.78;92.49;94099.94;5094183;28;20181;-81
2022/06/10 03:55:21;;;;;;;16.52;10.95;;;;;;;18.52;92.44;94062.00;5094086;28;20204;-81
2022/06/10 03:57:48;;;;;;;17.17;11.30;;;;;;;18.59;92.88;94081.19;5094037;28;20172;-81
2022/06/10 04:00:21;;;;;;;15.30;10.18;;;;;;;18.76;92.77;94102.13;5093685;28;20636;-81
2022/06/10 04:02:47;;;;;;;15.10;9.90;;;;;;;18.75;92.92;94109.31;5092142;28;20257;-80
2022/06/10 04:05:13;;;;;;;10.43;7.35;;;;;;;18.76;93.25;94107.44;5094036;28;20205;-80
2022/06/10 04:07:39;;;;;;;11.15;7.25;;;;;;;18.66;93.56;94096.88;5089747;28;20547;-80
2022/06/10 04:10:07;;;;;;;8.13;5.22;;;;;;;18.72;93.13;94101.06;5093793;28;20185;-80
2022/06/10 04:12:33;;;;;;;7.13;5.85;;;;;;;18.77;92.88;94106.34;5093745;28;20186;-80
2022/06/10 04:14:58;;;;;;;8.43;5.50;;;;;;;18.64;92.89;94104.34;5093654;28;20234;-82
2022/06/10 04:17:23;;;;;;;9.95;6.60;;;;;;;18.61;93.28;94099.56;5093570;28;20182;-80
2022/06/10 04:19:49;;;;;;;7.63;5.90;;;;;;;18.57;93.91;94098.53;5093485;28;20181;-80
2022/06/10 04:22:14;;;;;;;12.10;7.85;;;;;;;18.25;94.32;94046.50;5093595;28;20174;-80
2022/06/10 04:24:39;;;;;;;17.08;12.13;;;;;;;18.59;94.07;94083.88;5093394;28;20613;-80
2022/06/10 04:27:05;;;;;;;12.63;8.82;;;;;;;18.72;94.23;94101.06;5093817;28;20181;-80
2022/06/10 04:29:31;;;;;;;23.55;14.48;;;;;;;18.69;94.31;94075.75;5093812;28;20169;-81
2022/06/10 04:31:56;;;;;;;16.55;10.88;;;;;;;18.79;93.49;94080.22;5093783;28;20158;-80
2022/06/10 04:34:22;;;;;;;36.10;23.13;;;;;;;18.85;94.00;94095.88;5093819;28;20254;-80
2022/06/10 04:36:47;;;;;;;21.50;13.93;;;;;;;18.93;93.81;94107.84;5094106;28;20154;-80
2022/06/10 04:39:13;;;;;;;15.85;10.80;;;;;;;18.97;93.70;94102.72;5093275;28;20194;-80
2022/06/10 04:41:39;;;;;;;13.23;8.18;;;;;;;18.69;93.24;94049.09;5093453;28;20542;-80
2022/06/10 04:44:05;;;;;;;18.92;11.10;;;;;;;19.13;93.61;94115.63;5093403;28;20166;-80
2022/06/10 04:46:36;;;;;;;11.05;7.60;;;;;;;19.16;93.62;94120.41;5093298;28;20173;-81
2022/06/10 04:49:01;;;;;;;11.48;7.60;;;;;;;18.94;93.32;94076.63;5094141;28;20189;-80
2022/06/10 04:51:27;;;;;;;8.27;6.32;;;;;;;18.92;93.58;94086.78;5091977;28;20208;-81
2022/06/10 04:53:52;;;;;;;8.45;5.45;;;;;;;18.96;93.63;94095.78;5093516;28;20227;-81
2022/06/10 04:56:18;;;;;;;7.93;6.13;;;;;;;18.82;92.83;94066.31;5091789;28;20170;-81
2022/06/10 04:58:44;;;;;;;8.00;6.40;;;;;;;19.09;92.81;94124.50;5092940;28;20200;-81
2022/06/10 05:01:10;;;;;;;8.45;6.22;;;;;;;18.90;93.37;94095.06;5093146;28;20308;-81
2022/06/10 05:03:35;;;;;;;8.00;5.68;;;;;;;19.10;91.26;94129.56;5092098;28;20173;-81
2022/06/10 05:06:01;;;;;;;9.13;5.82;;;;;;;19.07;91.71;94131.97;5091888;28;20173;-81
2022/06/10 05:08:26;;;;;;;8.60;6.22;;;;;;;19.02;91.39;94140.84;5093000;28;20185;-81
2022/06/10 05:10:52;;;;;;;13.50;8.70;;;;;;;19.02;92.85;94138.16;5092823;28;20227;-81
2022/06/10 05:13:20;;;;;;;12.23;7.43;;;;;;;18.96;91.88;94135.78;5093282;28;20219;-81
2022/06/10 05:15:46;;;;;;;8.68;6.65;;;;;;;18.99;92.98;94141.38;5092789;28;20310;-81
2022/06/10 05:18:14;;;;;;;8.95;5.68;;;;;;;18.99;92.34;94140.59;5092807;28;20200;-81
2022/06/10 05:20:41;;;;;;;9.20;6.57;;;;;;;18.93;93.03;94141.72;5093039;28;20165;-81
2022/06/10 05:23:09;;;;;;;8.82;6.72;;;;;;;18.92;92.15;94137.44;5093305;28;20158;-80
2022/06/10 05:25:35;;;;;;;9.57;5.45;;;;;;;18.99;92.43;94153.91;5092585;28;20154;-80
2022/06/10 05:28:01;;;;;;;16.45;7.07;;;;;;;19.00;91.51;94155.53;5092493;28;20528;-80
2022/06/10 05:30:30;;;;;;;9.50;6.05;;;;;;;18.98;91.44;94145.13;5092959;28;20623;-80
2022/06/10 05:32:57;;;;;;;10.15;5.60;;;;;;;18.95;91.77;94137.66;5092244;28;20170;-80
2022/06/10 05:35:22;;;;;;;6.82;5.50;;;;;;;18.78;91.01;94115.94;5090830;28;20181;-80
2022/06/10 05:37:48;;;;;;;10.55;5.80;;;;;;;19.05;91.72;94147.47;5091463;28;20268;-81
2022/06/10 05:40:14;;;;;;;7.45;5.25;;;;;;;18.79;90.18;94082.88;5092291;28;20636;-81
2022/06/10 05:42:41;;;;;;;8.93;6.63;;;;;;;19.12;90.26;94143.38;5092680;28;20218;-80
2022/06/10 05:45:07;;;;;;;11.88;6.13;;;;;;;18.90;90.82;94107.59;5092649;28;20174;-80
2022/06/10 05:47:34;;;;;;;11.20;7.65;;;;;;;18.87;90.93;94103.59;5092457;28;20158;-80
2022/06/10 05:50:02;;;;;;;11.13;7.50;;;;;;;19.10;90.78;94145.56;5092390;28;20183;-79
2022/06/10 05:52:30;;;;;;;10.35;7.10;;;;;;;19.14;90.91;94130.56;5091413;28;20177;-79
2022/06/10 05:54:58;;;;;;;8.73;6.13;;;;;;;19.18;89.63;94144.94;5091072;28;20174;-79
2022/06/10 05:57:24;;;;;;;9.48;6.10;;;;;;;18.85;89.59;94106.53;5075403;28;20170;-79
2022/06/10 05:59:52;;;;;;;8.07;5.55;;;;;;;19.12;89.59;94147.91;5091812;28;20205;-78
2022/06/10 06:02:19;;;;;;;9.80;6.60;;;;;;;19.15;90.73;94153.50;5091853;28;20233;-78
2022/06/10 06:04:45;;;;;;;9.75;7.00;;;;;;;19.30;91.75;94159.75;5091926;28;20201;-80
2022/06/10 06:07:16;;;;;;;13.15;7.55;;;;;;;19.09;90.44;94127.97;5092386;28;20701;-78
2022/06/10 06:09:41;;;;;;;9.15;5.63;;;;;;;19.10;90.22;94121.53;5092287;28;20738;-79
2022/06/10 06:12:08;;;;;;;9.55;6.20;;;;;;;19.34;89.57;94152.81;5091859;28;20189;-78
2022/06/10 06:14:34;;;;;;;8.82;6.53;;;;;;;19.31;90.15;94156.03;5090340;28;20173;-79
2022/06/10 06:17:02;;;;;;;7.88;5.75;;;;;;;19.30;90.11;94154.44;5091945;28;20180;-79
2022/06/10 06:19:29;;;;;;;9.93;6.57;;;;;;;19.37;91.27;94157.59;5091734;28;20201;-79
2022/06/10 06:21:54;;;;;;;14.15;7.40;;;;;;;19.16;90.67;94139.09;5091704;28;20178;-78
2022/06/10 06:24:20;;;;;;;7.43;6.63;;;;;;;19.28;90.91;94160.06;5095618;28;20569;-79
2022/06/10 06:26:46;;;;;;;6.60;5.45;;;;;;;19.37;90.95;94162.91;5091819;28;20696;-78
2022/06/10 06:29:12;;;;;;;7.22;5.38;;;;;;;19.28;88.35;94178.75;5092561;28;20254;-79
2022/06/10 06:31:38;;;;;;;8.90;5.97;;;;;;;19.15;89.25;94158.03;5091828;28;20258;-79
2022/06/10 06:34:04;;;;;;;8.38;5.60;;;;;;;19.12;90.50;94135.38;5091847;28;20601;-79
2022/06/10 06:36:37;;;;;;;9.32;7.10;;;;;;;19.39;90.93;94174.09;5091973;28;20234;-79
2022/06/10 06:39:04;;;;;;;9.15;6.05;;;;;;;19.42;90.29;94171.66;5089826;28;20208;-79
2022/06/10 06:41:30;;;;;;;9.05;6.10;;;;;;;19.30;89.13;94170.44;5091524;28;20186;-79
2022/06/10 06:43:55;;;;;;;8.68;5.80;;;;;;;19.32;90.65;94162.94;5091601;28;20265;-80
2022/06/10 06:46:21;;;;;;;9.48;6.28;;;;;;;19.37;89.31;94166.34;5091459;28;20182;-79
2022/06/10 06:48:46;;;;;;;8.35;6.03;;;;;;;19.33;90.03;94181.38;5094760;28;20248;-80
2022/06/10 06:51:12;;;;;;;6.20;5.18;;;;;;;18.68;89.69;94103.50;5100052;28;20177;-81
2022/06/10 06:53:37;;;;;;;7.82;5.80;;;;;;;19.08;89.93;94178.94;5108715;28;20173;-80
2022/06/10 06:56:04;;;;;;;11.52;5.93;;;;;;;19.04;91.36;94162.66;5094005;28;20162;-80
2022/06/10 06:58:29;;;;;;;8.65;6.45;;;;;;;19.10;90.91;94169.56;5095098;28;20194;-79
2022/06/10 07:00:55;;;;;;;10.52;5.22;;;;;;;19.15;89.57;94168.72;5094970;28;20692;-79
2022/06/10 07:03:21;;;;;;;7.00;5.72;;;;;;;19.20;89.18;94169.47;5095370;28;20605;-79
2022/06/10 07:05:47;;;;;;;9.60;5.30;;;;;;;19.30;87.73;94170.44;5094413;28;20180;-78
2022/06/10 07:08:12;;;;;;;9.48;5.25;;;;;;;19.25;87.98;94162.50;5094488;28;20273;-79
2022/06/10 07:10:38;;;;;;;9.10;5.07;;;;;;;19.19;87.41;94143.06;5094882;28;20154;-79
2022/06/10 07:13:03;;;;;;;8.00;5.95;;;;;;;19.37;88.35;94166.34;5094782;28;20170;-79
2022/06/10 07:15:29;;;;;;;8.02;5.97;;;;;;;19.37;88.09;94163.69;5094687;28;20220;-79
2022/06/10 07:17:55;;;;;;;9.00;6.05;;;;;;;19.44;87.60;94164.19;5094471;28;20223;-79
2022/06/10 07:20:31;;;;;;;7.00;5.70;;;;;;;19.50;86.98;94167.59;5094641;28;20197;-79
2022/06/10 07:22:59;;;;;;;5.75;5.07;;;;;;;19.52;86.11;94174.25;5094689;28;20227;-78
2022/06/10 07:25:25;;;;;;;6.50;5.20;;;;;;;19.42;86.10;94168.19;5094607;28;20178;-78
2022/06/10 07:27:52;;;;;;;6.35;5.18;;;;;;;19.40;86.59;94173.00;5095148;28;21574;-78
2022/06/10 07:30:19;;;;;;;7.55;4.55;;;;;;;19.43;86.17;94169.78;5094872;28;20177;-79
2022/06/10 07:32:46;;;;;;;7.43;5.50;;;;;;;19.47;86.69;94181.47;5094090;28;20174;-79
2022/06/10 07:35:12;;;;;;;10.65;5.78;;;;;;;19.23;86.88;94128.06;5094168;28;20182;-80
2022/06/10 07:37:39;;;;;;;9.10;5.13;;;;;;;19.60;85.68;94175.50;5085888;28;20182;-80
2022/06/10 07:40:05;;;;;;;9.90;5.90;;;;;;;19.64;86.20;94191.75;5093074;28;20197;-80
2022/06/10 07:42:30;;;;;;;7.00;5.53;;;;;;;19.43;85.62;94141.22;5092067;28;20231;-80
2022/06/10 07:44:56;;;;;;;6.90;5.30;;;;;;;19.39;84.02;94137.50;5094310;28;20177;-80
2022/06/10 07:47:23;;;;;;;7.72;5.40;;;;;;;19.41;83.72;94134.56;5094008;28;20170;-79
2022/06/10 07:49:48;;;;;;;9.05;6.15;;;;;;;19.47;85.07;94168.13;5094323;28;20166;-80
2022/06/10 07:52:15;;;;;;;8.63;6.75;;;;;;;19.45;85.00;94175.66;5094301;28;20177;-80
2022/06/10 07:54:40;;;;;;;8.90;6.15;;;;;;;19.57;85.90;94190.22;5093458;28;20185;-78
2022/06/10 07:57:07;;;;;;;6.50;5.72;;;;;;;19.31;84.88;94156.03;5093736;28;20176;-79
2022/06/10 07:59:34;;;;;;;8.25;5.65;;;;;;;19.28;84.56;94137.91;5093209;28;20626;-80
2022/06/10 08:01:59;;;;;;;5.78;5.13;;;;;;;19.73;85.04;94188.19;5093661;28;20281;-80
2022/06/10 08:04:25;;;;;;;7.00;5.97;;;;;;;19.33;83.79;94119.19;5092485;28;20272;-81
2022/06/10 08:06:50;;;;;;;8.73;4.78;;;;;;;19.98;82.21;94190.56;5093790;28;20180;-81
2022/06/10 08:09:21;;;;;;;7.93;5.70;;;;;;;20.09;82.80;94190.44;5090570;28;20216;-79
2022/06/10 08:11:51;;;;;;;8.80;6.07;;;;;;;20.28;82.91;94193.94;5093582;28;20234;-79
2022/06/10 08:14:16;;;;;;;8.82;6.53;;;;;;;20.44;82.51;94195.38;5083621;28;20239;-78
2022/06/10 08:16:42;;;;;;;8.00;5.95;;;;;;;20.55;81.76;94196.81;5093710;28;20589;-79
2022/06/10 08:19:07;;;;;;;12.73;5.88;;;;;;;20.57;81.33;94189.31;5093616;28;20229;-79
2022/06/10 08:24:20;;;;;;;9.05;5.47;;;;;;;20.74;80.32;94198.72;5094066;28;20662;-79
2022/06/10 08:26:47;;;;;;;9.13;6.68;;;;;;;20.40;80.51;94135.53;5093489;28;20181;-79
2022/06/10 08:29:12;;;;;;;9.77;6.43;;;;;;;20.61;80.17;94158.22;5092485;28;20663;-80
2022/06/10 08:31:38;;;;;;;13.07;6.50;;;;;;;21.01;79.77;94209.53;5093414;28;20257;-78
2022/06/10 08:34:04;;;;;;;8.63;5.85;;;;;;;21.01;81.03;94204.97;5093558;28;20569;-79
2022/06/10 08:36:30;;;;;;;7.57;5.35;;;;;;;21.18;79.21;94220.53;5093384;28;20205;-79
2022/06/10 08:38:56;;;;;;;8.80;5.53;;;;;;;21.27;78.24;94212.63;5092111;28;20588;-79
2022/06/10 08:41:55;;;;;;;8.73;5.18;;;;;;;21.32;77.00;94223.25;5091711;28;20185;-79
2022/06/10 08:44:34;;;;;;;9.70;4.80;;;;;;;21.36;76.13;94218.91;5077323;28;20285;-80
2022/06/10 08:47:29;;;;;;;8.50;4.10;;;;;;;21.29;74.06;94221.94;5091186;28;20962;-78
2022/06/10 08:50:08;;;;;;;9.20;4.38;;;;;;;21.36;74.58;94233.06;5091607;28;20220;-79
2022/06/10 08:52:39;;;;;;;7.55;3.72;;;;;;;21.32;74.11;94234.75;5093474;28;20177;-79
2022/06/10 08:55:23;;;;;;;4.32;3.92;;;;;;;21.13;75.17;94231.28;5093144;28;20594;-79
2022/06/10 08:57:49;;;;;;;6.50;3.90;;;;;;;21.14;76.45;94232.88;5085016;28;20256;-78
2022/06/10 09:00:21;;;;;;;5.78;4.40;;;;;;;21.23;75.22;94236.50;5092925;28;20264;-79
2022/06/10 09:02:49;;;;;;;8.23;4.45;;;;;;;21.31;75.34;94230.47;5093031;28;20174;-80
2022/06/10 09:05:14;;;;;;;6.45;4.78;;;;;;;21.44;75.99;94229.75;5092711;28;20186;-82
2022/06/10 09:07:42;;;;;;;10.60;4.25;;;;;;;21.61;74.40;94231.88;5091640;28;20251;-81
2022/06/10 09:10:19;;;;;;;4.68;4.18;;;;;;;21.59;72.31;94225.19;5092720;28;20177;-78
2022/06/10 09:12:51;;;;;;;5.07;4.30;;;;;;;21.61;72.14;94244.47;5092565;28;20181;-78
2022/06/10 09:15:18;;;;;;;8.38;4.28;;;;;;;21.65;72.39;94240.09;5092785;28;20176;-78
2022/06/10 09:17:52;;;;;;;12.20;3.95;;;;;;;21.59;72.03;94242.06;5092456;28;20180;-80
2022/06/10 09:20:52;;;;;;;6.55;4.07;;;;;;;21.44;72.49;94237.78;5090237;28;20177;-79
2022/06/10 09:23:32;;;;;;;5.53;4.95;;;;;;;21.45;72.31;94236.66;5082098;28;21054;-82
2022/06/10 09:26:07;;;;;;;6.85;5.22;;;;;;;21.23;73.57;94177.59;5092271;28;20196;-82
2022/06/10 09:28:33;;;;;;;5.30;4.38;;;;;;;21.82;73.13;94234.97;5088681;28;20846;-79
2022/06/10 09:31:06;;;;;;;8.75;5.40;;;;;;;21.94;72.06;94237.16;5092247;28;20248;-80
2022/06/10 09:33:37;;;;;;;6.03;4.15;;;;;;;22.05;72.16;94212.59;5092147;28;20170;-79
2022/06/10 09:36:39;;;;;;;6.57;4.60;;;;;;;22.23;71.00;94229.63;5091910;28;20250;-80
2022/06/10 09:39:08;;;;;;;7.32;4.20;;;;;;;22.14;73.31;94231.47;5092271;28;20197;-79
2022/06/10 09:41:39;;;;;;;5.10;4.20;;;;;;;22.02;73.41;94231.13;5092123;28;20177;-79
2022/06/10 09:44:23;;;;;;;4.60;4.05;;;;;;;21.78;71.86;94240.13;5092104;28;20162;-80
2022/06/10 09:47:22;;;;;;;8.60;4.03;;;;;;;21.53;73.33;94232.53;5090956;28;20173;-79
2022/06/10 09:49:54;;;;;;;4.65;3.75;;;;;;;21.45;74.41;94238.53;5092217;28;20169;-80
2022/06/10 09:52:26;;;;;;;4.65;3.88;;;;;;;21.30;74.25;94231.56;5092224;28;20201;-80
2022/06/10 09:55:19;;;;;;;5.35;4.07;;;;;;;21.32;74.05;94245.47;5092134;28;20166;-80
2022/06/10 09:58:03;;;;;;;5.18;4.10;;;;;;;21.30;75.19;94244.94;5084463;28;20170;-80
2022/06/10 10:00:34;;;;;;;5.53;4.22;;;;;;;21.21;76.33;94252.06;5091638;28;20237;-79
2022/06/10 10:03:14;;;;;;;7.10;4.50;;;;;;;21.05;77.87;94259.50;5092017;28;20174;-80
2022/06/10 10:05:51;;;;;;;10.90;4.10;;;;;;;20.67;79.54;94272.06;5090775;28;20177;-79
2022/06/10 10:08:29;;;;;;;6.03;4.60;;;;;;;20.07;81.27;94211.31;5092455;28;20189;-80
2022/06/10 10:11:03;;;;;;;8.65;5.65;;;;;;;20.29;82.91;94273.06;5083880;28;20193;-80
2022/06/10 10:13:44;;;;;;;5.03;4.30;;;;;;;20.04;83.58;94243.97;5092265;28;20185;-80
2022/06/10 10:16:30;;;;;;;12.57;9.13;;;;;;;20.10;85.19;94264.19;5085424;28;20226;-80
2022/06/10 10:19:10;;;;;;;6.57;5.57;;;;;;;19.72;87.19;94258.69;5091496;28;20242;-80
2022/06/10 10:21:58;;;;;;;8.30;6.50;;;;;;;19.64;89.19;94264.66;5091516;28;20178;-80
2022/06/10 10:24:26;;;;;;;9.85;6.95;;;;;;;19.18;92.15;94248.22;5090078;28;20261;-80
2022/06/10 10:26:52;;;;;;;14.52;7.65;;;;;;;18.97;94.64;94274.25;5095899;28;20196;-79
2022/06/10 10:29:35;;;;;;;15.80;9.23;;;;;;;18.66;97.04;94262.19;5096035;28;20227;-79
2022/06/10 10:32:11;;;;;;;19.80;12.73;;;;;;;18.69;97.43;94262.41;5095975;28;20173;-79
2022/06/10 10:34:41;;;;;;;22.23;12.98;;;;;;;18.91;97.97;94269.22;5095941;28;20647;-79
2022/06/10 10:37:29;;;;;;;14.82;9.70;;;;;;;19.11;97.61;94277.88;5096054;28;20691;-80
2022/06/10 10:40:01;;;;;;;10.15;6.30;;;;;;;19.19;96.67;94274.63;5095594;28;20197;-80
2022/06/10 10:42:39;;;;;;;8.45;6.65;;;;;;;19.06;94.31;94269.13;5095913;28;20184;-80
2022/06/10 10:45:20;;;;;;;12.60;8.45;;;;;;;19.02;95.90;94270.75;5095999;28;20213;-80
2022/06/10 10:48:17;;;;;;;15.73;8.43;;;;;;;19.21;97.52;94274.34;5095704;28;20222;-80
2022/06/10 10:50:53;;;;;;;8.48;6.25;;;;;;;19.34;94.59;94275.59;5085855;28;20681;-80
2022/06/10 10:53:24;;;;;;;15.30;8.27;;;;;;;19.33;92.85;94274.00;5095685;28;20222;-79
2022/06/10 10:55:54;;;;;;;14.38;8.00;;;;;;;19.42;93.46;94269.63;5095585;28;20636;-80
2022/06/10 10:58:35;;;;;;;8.35;6.10;;;;;;;19.40;93.96;94267.25;5095261;28;20201;-80
2022/06/10 11:01:07;;;;;;;10.85;7.57;;;;;;;19.42;94.12;94262.44;5095280;28;20221;-80
2022/06/10 11:03:44;;;;;;;15.73;8.13;;;;;;;19.54;95.12;94256.75;5095107;28;20218;-80
2022/06/10 11:06:25;;;;;;;9.32;6.53;;;;;;;19.51;95.12;94241.28;5095246;28;20238;-80
2022/06/10 11:09:16;;;;;;;25.65;15.90;;;;;;;19.48;93.65;94228.50;5088196;28;20176;-80
2022/06/10 11:11:43;;;;;;;14.60;9.68;;;;;;;19.62;93.19;94240.13;5094536;28;20556;-80
2022/06/10 11:14:20;;;;;;;14.45;9.85;;;;;;;19.75;93.47;94262.69;5094934;28;20166;-80
2022/06/10 11:17:01;;;;;;;10.57;6.88;;;;;;;19.70;93.88;94260.09;5094876;28;20181;-80
2022/06/10 11:19:41;;;;;;;7.75;6.20;;;;;;;19.81;93.86;94258.88;5094793;28;20185;-80
2022/06/10 11:22:06;;;;;;;10.18;7.40;;;;;;;19.93;94.21;94265.44;5088173;28;20211;-79
2022/06/10 11:24:40;;;;;;;8.55;6.65;;;;;;;19.86;90.96;94232.94;5094955;28;20162;-80
2022/06/10 11:27:27;;;;;;;8.60;5.78;;;;;;;20.07;90.49;94248.72;5088528;28;20184;-80
2022/06/10 11:30:15;;;;;;;9.80;6.10;;;;;;;20.28;91.14;94258.09;5094836;28;20166;-79
2022/06/10 11:32:49;;;;;;;16.48;10.85;;;;;;;20.31;90.00;94241.50;5094687;28;20170;-80
2022/06/10 11:35:37;;;;;;;20.73;14.02;;;;;;;20.45;89.10;94249.66;5093478;28;20227;-80
2022/06/10 11:38:09;;;;;;;13.63;8.27;;;;;;;20.43;86.54;94252.59;5093694;28;20181;-80
2022/06/10 11:40:49;;;;;;;8.50;6.75;;;;;;;20.44;86.31;94259.53;5094646;28;20555;-79
2022/06/10 11:43:31;;;;;;;8.90;5.47;;;;;;;20.57;87.54;94248.16;5085874;28;20252;-80
2022/06/10 11:46:12;;;;;;;9.63;5.82;;;;;;;20.60;85.66;94250.22;5094181;28;20201;-80
2022/06/10 11:48:59;;;;;;;13.00;6.20;;;;;;;20.63;87.81;94241.66;5094379;28;20170;-80
2022/06/10 11:51:27;;;;;;;8.50;6.45;;;;;;;20.69;88.12;94235.13;5086204;28;20174;-80
2022/06/10 11:54:26;;;;;;;8.93;6.25;;;;;;;20.86;89.41;94231.16;5094829;28;20174;-80
2022/06/10 12:00:02;;;;;;;7.97;5.80;;;;;;;21.28;84.99;94246.31;5088229;28;20204;-79
2022/06/10 12:02:46;;;;;;;6.75;5.60;;;;;;;21.26;84.39;94243.97;5092424;28;20247;-79